sensor_id;sensor_type;location;lat;lon;timestamp;P1;durP1;ratioP1;P2;durP2;ratioP2
8861;SDS011;4799;50.996;4.754;2023-11-21T00:01:01;55.20;;;41.33;;
8861;SDS011;4799;50.996;4.754;2023-11-21T00:03:29;56.53;;;42.60;;
8861;SDS011;4799;50.996;4.754;2023-11-21T00:05:55;54.30;;;43.70;;
8861;SDS011;4799;50.996;4.754;2023-11-21T00:08:21;53.07;;;43.40;;
8861;SDS011;4799;50.996;4.754;2023-11-21T00:10:47;64.30;;;48.97;;
8861;SDS011;4799;50.996;4.754;2023-11-21T00:13:13;64.43;;;47.23;;
8861;SDS011;4799;50.996;4.754;2023-11-21T00:15:39;53.63;;;43.93;;
8861;SDS011;4799;50.996;4.754;2023-11-21T00:18:05;59.07;;;46.43;;
8861;SDS011;4799;50.996;4.754;2023-11-21T00:20:31;66.53;;;49.13;;
8861;SDS011;4799;50.996;4.754;2023-11-21T00:22:57;61.33;;;46.23;;
8861;SDS011;4799;50.996;4.754;2023-11-21T00:25:24;65.43;;;49.03;;
8861;SDS011;4799;50.996;4.754;2023-11-21T00:27:50;77.07;;;53.97;;
8861;SDS011;4799;50.996;4.754;2023-11-21T00:30:16;73.63;;;53.20;;
8861;SDS011;4799;50.996;4.754;2023-11-21T00:32:42;69.97;;;47.60;;
8861;SDS011;4799;50.996;4.754;2023-11-21T00:35:08;75.73;;;50.77;;
8861;SDS011;4799;50.996;4.754;2023-11-21T00:37:34;81.43;;;52.20;;
8861;SDS011;4799;50.996;4.754;2023-11-21T00:40:00;72.73;;;49.87;;
8861;SDS011;4799;50.996;4.754;2023-11-21T00:42:30;88.70;;;53.50;;
8861;SDS011;4799;50.996;4.754;2023-11-21T00:44:57;90.60;;;55.50;;
8861;SDS011;4799;50.996;4.754;2023-11-21T00:47:22;86.03;;;54.17;;
8861;SDS011;4799;50.996;4.754;2023-11-21T00:49:48;98.73;;;59.00;;
8861;SDS011;4799;50.996;4.754;2023-11-21T00:52:14;94.03;;;56.57;;
8861;SDS011;4799;50.996;4.754;2023-11-21T00:54:40;97.23;;;57.13;;
8861;SDS011;4799;50.996;4.754;2023-11-21T00:57:06;123.53;;;65.07;;
8861;SDS011;4799;50.996;4.754;2023-11-21T00:59:33;102.53;;;61.10;;
8861;SDS011;4799;50.996;4.754;2023-11-21T01:02:00;94.87;;;58.57;;
8861;SDS011;4799;50.996;4.754;2023-11-21T01:04:26;120.93;;;63.07;;
8861;SDS011;4799;50.996;4.754;2023-11-21T01:06:53;95.20;;;57.40;;
8861;SDS011;4799;50.996;4.754;2023-11-21T01:09:18;111.33;;;60.37;;
8861;SDS011;4799;50.996;4.754;2023-11-21T01:11:44;118.87;;;67.43;;
8861;SDS011;4799;50.996;4.754;2023-11-21T01:14:10;135.07;;;68.17;;
8861;SDS011;4799;50.996;4.754;2023-11-21T01:16:36;116.93;;;65.60;;
8861;SDS011;4799;50.996;4.754;2023-11-21T01:19:01;113.27;;;61.20;;
8861;SDS011;4799;50.996;4.754;2023-11-21T01:21:27;108.47;;;58.23;;
8861;SDS011;4799;50.996;4.754;2023-11-21T01:23:53;85.73;;;53.53;;
8861;SDS011;4799;50.996;4.754;2023-11-21T01:26:20;138.40;;;68.93;;
8861;SDS011;4799;50.996;4.754;2023-11-21T01:28:46;122.73;;;63.10;;
8861;SDS011;4799;50.996;4.754;2023-11-21T01:31:14;101.20;;;57.57;;
8861;SDS011;4799;50.996;4.754;2023-11-21T01:33:40;106.50;;;57.93;;
8861;SDS011;4799;50.996;4.754;2023-11-21T01:36:06;92.67;;;54.73;;
8861;SDS011;4799;50.996;4.754;2023-11-21T01:38:32;80.53;;;52.73;;
8861;SDS011;4799;50.996;4.754;2023-11-21T01:40:58;79.27;;;50.77;;
8861;SDS011;4799;50.996;4.754;2023-11-21T01:43:26;177.97;;;70.27;;
8861;SDS011;4799;50.996;4.754;2023-11-21T01:45:52;163.43;;;63.57;;
8861;SDS011;4799;50.996;4.754;2023-11-21T01:48:22;129.83;;;60.60;;
8861;SDS011;4799;50.996;4.754;2023-11-21T01:50:48;121.93;;;57.57;;
8861;SDS011;4799;50.996;4.754;2023-11-21T01:53:14;236.03;;;77.23;;
8861;SDS011;4799;50.996;4.754;2023-11-21T01:55:43;115.30;;;57.50;;
8861;SDS011;4799;50.996;4.754;2023-11-21T01:58:10;192.00;;;70.87;;
8861;SDS011;4799;50.996;4.754;2023-11-21T02:00:37;115.63;;;56.30;;
8861;SDS011;4799;50.996;4.754;2023-11-21T02:03:03;84.70;;;51.57;;
8861;SDS011;4799;50.996;4.754;2023-11-21T02:05:29;78.00;;;48.07;;
8861;SDS011;4799;50.996;4.754;2023-11-21T02:07:55;114.10;;;54.20;;
8861;SDS011;4799;50.996;4.754;2023-11-21T02:10:21;393.83;;;75.27;;
8861;SDS011;4799;50.996;4.754;2023-11-21T02:12:51;292.13;;;66.90;;
8861;SDS011;4799;50.996;4.754;2023-11-21T02:15:17;686.43;;;104.23;;
8861;SDS011;4799;50.996;4.754;2023-11-21T02:17:46;106.37;;;53.70;;
8861;SDS011;4799;50.996;4.754;2023-11-21T02:20:16;136.63;;;54.83;;
8861;SDS011;4799;50.996;4.754;2023-11-21T02:22:43;133.47;;;53.87;;
8861;SDS011;4799;50.996;4.754;2023-11-21T02:25:14;107.23;;;52.73;;
8861;SDS011;4799;50.996;4.754;2023-11-21T02:27:39;100.13;;;54.47;;
8861;SDS011;4799;50.996;4.754;2023-11-21T02:30:05;206.97;;;63.90;;
8861;SDS011;4799;50.996;4.754;2023-11-21T02:32:33;125.33;;;56.40;;
8861;SDS011;4799;50.996;4.754;2023-11-21T02:34:59;102.47;;;55.73;;
8861;SDS011;4799;50.996;4.754;2023-11-21T02:37:27;101.90;;;55.23;;
8861;SDS011;4799;50.996;4.754;2023-11-21T02:39:53;81.90;;;50.47;;
8861;SDS011;4799;50.996;4.754;2023-11-21T02:42:18;82.33;;;50.30;;
8861;SDS011;4799;50.996;4.754;2023-11-21T02:44:44;104.23;;;54.23;;
8861;SDS011;4799;50.996;4.754;2023-11-21T02:47:10;96.57;;;53.37;;
8861;SDS011;4799;50.996;4.754;2023-11-21T02:49:35;145.80;;;60.23;;
8861;SDS011;4799;50.996;4.754;2023-11-21T02:52:01;99.57;;;52.33;;
8861;SDS011;4799;50.996;4.754;2023-11-21T02:54:27;136.97;;;59.97;;
8861;SDS011;4799;50.996;4.754;2023-11-21T02:56:53;78.50;;;48.33;;
8861;SDS011;4799;50.996;4.754;2023-11-21T02:59:19;117.13;;;58.57;;
8861;SDS011;4799;50.996;4.754;2023-11-21T03:01:45;114.67;;;53.20;;
8861;SDS011;4799;50.996;4.754;2023-11-21T03:04:11;109.60;;;52.60;;
8861;SDS011;4799;50.996;4.754;2023-11-21T03:06:42;80.73;;;47.53;;
8861;SDS011;4799;50.996;4.754;2023-11-21T03:09:09;101.60;;;51.97;;
8861;SDS011;4799;50.996;4.754;2023-11-21T03:11:37;128.43;;;55.50;;
8861;SDS011;4799;50.996;4.754;2023-11-21T03:14:03;83.07;;;47.13;;
8861;SDS011;4799;50.996;4.754;2023-11-21T03:16:29;73.53;;;44.80;;
8861;SDS011;4799;50.996;4.754;2023-11-21T03:18:54;72.40;;;47.00;;
8861;SDS011;4799;50.996;4.754;2023-11-21T03:21:20;89.17;;;49.50;;
8861;SDS011;4799;50.996;4.754;2023-11-21T03:23:45;85.90;;;47.20;;
8861;SDS011;4799;50.996;4.754;2023-11-21T03:26:11;73.67;;;45.20;;
8861;SDS011;4799;50.996;4.754;2023-11-21T03:28:38;78.57;;;46.90;;
8861;SDS011;4799;50.996;4.754;2023-11-21T03:31:04;76.20;;;45.87;;
8861;SDS011;4799;50.996;4.754;2023-11-21T03:33:31;97.80;;;49.43;;
8861;SDS011;4799;50.996;4.754;2023-11-21T03:35:57;83.10;;;47.03;;
8861;SDS011;4799;50.996;4.754;2023-11-21T03:38:23;65.53;;;42.27;;
8861;SDS011;4799;50.996;4.754;2023-11-21T03:40:49;78.70;;;44.17;;
8861;SDS011;4799;50.996;4.754;2023-11-21T03:43:15;88.03;;;47.10;;
8861;SDS011;4799;50.996;4.754;2023-11-21T03:45:41;78.57;;;45.13;;
8861;SDS011;4799;50.996;4.754;2023-11-21T03:48:07;72.03;;;43.73;;
8861;SDS011;4799;50.996;4.754;2023-11-21T03:50:34;86.73;;;46.37;;
8861;SDS011;4799;50.996;4.754;2023-11-21T03:53:00;98.63;;;47.90;;
8861;SDS011;4799;50.996;4.754;2023-11-21T03:55:25;74.80;;;42.47;;
8861;SDS011;4799;50.996;4.754;2023-11-21T03:57:52;68.03;;;42.23;;
8861;SDS011;4799;50.996;4.754;2023-11-21T04:00:17;91.43;;;48.70;;
8861;SDS011;4799;50.996;4.754;2023-11-21T04:02:45;71.63;;;42.57;;
8861;SDS011;4799;50.996;4.754;2023-11-21T04:05:11;85.03;;;44.93;;
8861;SDS011;4799;50.996;4.754;2023-11-21T04:07:37;83.20;;;45.57;;
8861;SDS011;4799;50.996;4.754;2023-11-21T04:10:04;74.90;;;43.80;;
8861;SDS011;4799;50.996;4.754;2023-11-21T04:12:33;61.03;;;38.03;;
8861;SDS011;4799;50.996;4.754;2023-11-21T04:14:59;68.23;;;39.60;;
8861;SDS011;4799;50.996;4.754;2023-11-21T04:17:25;62.10;;;38.60;;
8861;SDS011;4799;50.996;4.754;2023-11-21T04:19:51;102.30;;;46.53;;
8861;SDS011;4799;50.996;4.754;2023-11-21T04:22:16;69.13;;;40.03;;
8861;SDS011;4799;50.996;4.754;2023-11-21T04:24:42;65.03;;;38.60;;
8861;SDS011;4799;50.996;4.754;2023-11-21T04:27:08;67.17;;;38.90;;
8861;SDS011;4799;50.996;4.754;2023-11-21T04:29:34;65.27;;;38.20;;
8861;SDS011;4799;50.996;4.754;2023-11-21T04:32:00;70.63;;;40.23;;
8861;SDS011;4799;50.996;4.754;2023-11-21T04:34:27;80.83;;;41.17;;
8861;SDS011;4799;50.996;4.754;2023-11-21T04:36:56;76.10;;;39.77;;
8861;SDS011;4799;50.996;4.754;2023-11-21T04:39:22;79.03;;;41.07;;
8861;SDS011;4799;50.996;4.754;2023-11-21T04:41:48;85.73;;;42.73;;
8861;SDS011;4799;50.996;4.754;2023-11-21T04:44:14;85.07;;;42.13;;
8861;SDS011;4799;50.996;4.754;2023-11-21T04:46:41;75.77;;;39.23;;
8861;SDS011;4799;50.996;4.754;2023-11-21T04:49:07;133.10;;;49.73;;
8861;SDS011;4799;50.996;4.754;2023-11-21T04:51:32;87.83;;;42.37;;
8861;SDS011;4799;50.996;4.754;2023-11-21T04:53:58;76.07;;;40.73;;
8861;SDS011;4799;50.996;4.754;2023-11-21T04:56:24;90.77;;;43.80;;
8861;SDS011;4799;50.996;4.754;2023-11-21T04:58:50;80.23;;;41.80;;
8861;SDS011;4799;50.996;4.754;2023-11-21T05:01:16;83.17;;;42.27;;
8861;SDS011;4799;50.996;4.754;2023-11-21T05:03:41;94.03;;;43.93;;
8861;SDS011;4799;50.996;4.754;2023-11-21T05:06:09;109.67;;;45.90;;
8861;SDS011;4799;50.996;4.754;2023-11-21T05:08:35;133.90;;;46.47;;
8861;SDS011;4799;50.996;4.754;2023-11-21T05:11:02;84.50;;;42.10;;
8861;SDS011;4799;50.996;4.754;2023-11-21T05:13:28;81.30;;;41.00;;
8861;SDS011;4799;50.996;4.754;2023-11-21T05:15:54;88.60;;;43.53;;
8861;SDS011;4799;50.996;4.754;2023-11-21T05:18:22;81.17;;;40.97;;
8861;SDS011;4799;50.996;4.754;2023-11-21T05:20:48;93.40;;;45.70;;
8861;SDS011;4799;50.996;4.754;2023-11-21T05:23:13;70.80;;;38.67;;
8861;SDS011;4799;50.996;4.754;2023-11-21T05:25:39;72.63;;;38.87;;
8861;SDS011;4799;50.996;4.754;2023-11-21T05:28:06;69.53;;;38.43;;
8861;SDS011;4799;50.996;4.754;2023-11-21T05:30:32;85.93;;;41.60;;
8861;SDS011;4799;50.996;4.754;2023-11-21T05:32:58;72.77;;;39.27;;
8861;SDS011;4799;50.996;4.754;2023-11-21T05:35:23;68.97;;;37.93;;
8861;SDS011;4799;50.996;4.754;2023-11-21T05:37:49;85.30;;;40.17;;
8861;SDS011;4799;50.996;4.754;2023-11-21T05:40:15;74.50;;;40.27;;
8861;SDS011;4799;50.996;4.754;2023-11-21T05:42:41;86.10;;;43.10;;
8861;SDS011;4799;50.996;4.754;2023-11-21T05:45:07;89.07;;;42.47;;
8861;SDS011;4799;50.996;4.754;2023-11-21T05:47:43;84.83;;;41.87;;
8861;SDS011;4799;50.996;4.754;2023-11-21T05:50:11;88.73;;;41.87;;
8861;SDS011;4799;50.996;4.754;2023-11-21T05:52:42;78.03;;;40.87;;
8861;SDS011;4799;50.996;4.754;2023-11-21T05:55:11;81.57;;;40.97;;
8861;SDS011;4799;50.996;4.754;2023-11-21T05:57:38;84.60;;;41.23;;
8861;SDS011;4799;50.996;4.754;2023-11-21T06:00:05;80.93;;;40.97;;
8861;SDS011;4799;50.996;4.754;2023-11-21T06:02:50;89.73;;;43.50;;
8861;SDS011;4799;50.996;4.754;2023-11-21T06:05:18;75.90;;;41.10;;
8861;SDS011;4799;50.996;4.754;2023-11-21T06:07:45;83.87;;;40.47;;
8861;SDS011;4799;50.996;4.754;2023-11-21T06:10:11;75.90;;;40.27;;
8861;SDS011;4799;50.996;4.754;2023-11-21T06:12:40;87.37;;;42.27;;
8861;SDS011;4799;50.996;4.754;2023-11-21T06:15:08;82.40;;;43.03;;
8861;SDS011;4799;50.996;4.754;2023-11-21T06:17:38;85.00;;;42.43;;
8861;SDS011;4799;50.996;4.754;2023-11-21T06:20:05;77.30;;;41.07;;
8861;SDS011;4799;50.996;4.754;2023-11-21T06:22:36;77.67;;;40.07;;
8861;SDS011;4799;50.996;4.754;2023-11-21T06:25:02;77.47;;;40.40;;
8861;SDS011;4799;50.996;4.754;2023-11-21T06:27:49;77.87;;;40.13;;
8861;SDS011;4799;50.996;4.754;2023-11-21T06:30:16;75.30;;;41.20;;
8861;SDS011;4799;50.996;4.754;2023-11-21T06:32:44;78.90;;;40.90;;
8861;SDS011;4799;50.996;4.754;2023-11-21T06:35:10;84.30;;;42.13;;
8861;SDS011;4799;50.996;4.754;2023-11-21T06:37:36;73.23;;;39.73;;
8861;SDS011;4799;50.996;4.754;2023-11-21T06:40:02;71.57;;;39.30;;
8861;SDS011;4799;50.996;4.754;2023-11-21T06:42:32;76.27;;;41.53;;
8861;SDS011;4799;50.996;4.754;2023-11-21T06:44:58;74.53;;;41.57;;
8861;SDS011;4799;50.996;4.754;2023-11-21T06:47:27;74.23;;;41.70;;
8861;SDS011;4799;50.996;4.754;2023-11-21T06:49:54;69.60;;;38.83;;
8861;SDS011;4799;50.996;4.754;2023-11-21T06:52:20;80.60;;;40.13;;
8861;SDS011;4799;50.996;4.754;2023-11-21T06:54:47;78.03;;;41.33;;
8861;SDS011;4799;50.996;4.754;2023-11-21T06:57:14;75.87;;;39.87;;
8861;SDS011;4799;50.996;4.754;2023-11-21T06:59:40;68.87;;;39.60;;
8861;SDS011;4799;50.996;4.754;2023-11-21T07:02:06;77.17;;;41.47;;
8861;SDS011;4799;50.996;4.754;2023-11-21T07:04:33;67.33;;;38.80;;
8861;SDS011;4799;50.996;4.754;2023-11-21T07:06:59;75.43;;;40.17;;
8861;SDS011;4799;50.996;4.754;2023-11-21T07:09:25;79.73;;;41.90;;
8861;SDS011;4799;50.996;4.754;2023-11-21T07:11:51;80.70;;;42.17;;
8861;SDS011;4799;50.996;4.754;2023-11-21T07:14:17;76.70;;;42.60;;
8861;SDS011;4799;50.996;4.754;2023-11-21T07:16:45;74.57;;;41.63;;
8861;SDS011;4799;50.996;4.754;2023-11-21T07:19:11;76.23;;;41.30;;
8861;SDS011;4799;50.996;4.754;2023-11-21T07:21:37;80.10;;;42.33;;
8861;SDS011;4799;50.996;4.754;2023-11-21T07:24:04;75.60;;;41.23;;
8861;SDS011;4799;50.996;4.754;2023-11-21T07:26:31;72.27;;;42.10;;
8861;SDS011;4799;50.996;4.754;2023-11-21T07:28:58;76.17;;;42.50;;
8861;SDS011;4799;50.996;4.754;2023-11-21T07:31:25;69.93;;;40.43;;
8861;SDS011;4799;50.996;4.754;2023-11-21T07:33:51;67.13;;;39.77;;
8861;SDS011;4799;50.996;4.754;2023-11-21T07:36:17;66.37;;;40.03;;
8861;SDS011;4799;50.996;4.754;2023-11-21T07:38:45;62.77;;;38.90;;
8861;SDS011;4799;50.996;4.754;2023-11-21T07:41:12;59.07;;;38.77;;
8861;SDS011;4799;50.996;4.754;2023-11-21T07:43:40;70.90;;;40.97;;
8861;SDS011;4799;50.996;4.754;2023-11-21T07:46:07;69.47;;;40.53;;
8861;SDS011;4799;50.996;4.754;2023-11-21T07:48:35;58.70;;;39.07;;
8861;SDS011;4799;50.996;4.754;2023-11-21T07:51:02;69.10;;;41.20;;
8861;SDS011;4799;50.996;4.754;2023-11-21T07:53:32;53.77;;;36.30;;
8861;SDS011;4799;50.996;4.754;2023-11-21T07:55:58;58.00;;;39.43;;
8861;SDS011;4799;50.996;4.754;2023-11-21T07:58:27;56.33;;;37.90;;
8861;SDS011;4799;50.996;4.754;2023-11-21T08:00:53;61.80;;;41.13;;
8861;SDS011;4799;50.996;4.754;2023-11-21T08:03:19;55.00;;;38.10;;
8861;SDS011;4799;50.996;4.754;2023-11-21T08:05:46;57.93;;;39.63;;
8861;SDS011;4799;50.996;4.754;2023-11-21T08:08:12;64.50;;;42.93;;
8861;SDS011;4799;50.996;4.754;2023-11-21T08:10:38;52.27;;;35.97;;
8861;SDS011;4799;50.996;4.754;2023-11-21T08:13:07;52.43;;;37.63;;
8861;SDS011;4799;50.996;4.754;2023-11-21T08:15:34;56.50;;;38.00;;
8861;SDS011;4799;50.996;4.754;2023-11-21T08:18:02;55.43;;;38.63;;
8861;SDS011;4799;50.996;4.754;2023-11-21T08:20:28;51.73;;;37.13;;
8861;SDS011;4799;50.996;4.754;2023-11-21T08:22:54;57.37;;;38.80;;
8861;SDS011;4799;50.996;4.754;2023-11-21T08:25:22;60.03;;;39.73;;
8861;SDS011;4799;50.996;4.754;2023-11-21T08:27:47;65.90;;;41.03;;
8861;SDS011;4799;50.996;4.754;2023-11-21T08:30:14;61.83;;;39.73;;
8861;SDS011;4799;50.996;4.754;2023-11-21T08:32:41;56.17;;;37.60;;
8861;SDS011;4799;50.996;4.754;2023-11-21T08:35:08;61.10;;;38.93;;
8861;SDS011;4799;50.996;4.754;2023-11-21T08:37:34;53.07;;;35.13;;
8861;SDS011;4799;50.996;4.754;2023-11-21T08:40:02;60.50;;;38.70;;
8861;SDS011;4799;50.996;4.754;2023-11-21T08:42:33;60.97;;;38.67;;
8861;SDS011;4799;50.996;4.754;2023-11-21T08:44:59;55.70;;;37.13;;
8861;SDS011;4799;50.996;4.754;2023-11-21T08:47:25;57.70;;;35.67;;
8861;SDS011;4799;50.996;4.754;2023-11-21T08:49:51;53.20;;;35.63;;
8861;SDS011;4799;50.996;4.754;2023-11-21T08:52:20;55.23;;;34.37;;
8861;SDS011;4799;50.996;4.754;2023-11-21T08:54:48;45.43;;;31.73;;
8861;SDS011;4799;50.996;4.754;2023-11-21T08:57:21;53.73;;;35.33;;
8861;SDS011;4799;50.996;4.754;2023-11-21T08:59:50;51.50;;;35.63;;
8861;SDS011;4799;50.996;4.754;2023-11-21T09:02:25;58.90;;;36.83;;
8861;SDS011;4799;50.996;4.754;2023-11-21T09:04:51;51.60;;;36.40;;
8861;SDS011;4799;50.996;4.754;2023-11-21T09:07:20;58.93;;;35.90;;
8861;SDS011;4799;50.996;4.754;2023-11-21T09:09:47;58.13;;;36.37;;
8861;SDS011;4799;50.996;4.754;2023-11-21T09:12:14;52.67;;;35.00;;
8861;SDS011;4799;50.996;4.754;2023-11-21T09:14:40;59.90;;;36.77;;
8861;SDS011;4799;50.996;4.754;2023-11-21T09:17:05;52.37;;;35.20;;
8861;SDS011;4799;50.996;4.754;2023-11-21T09:19:39;52.30;;;33.20;;
8861;SDS011;4799;50.996;4.754;2023-11-21T09:22:05;53.73;;;33.87;;
8861;SDS011;4799;50.996;4.754;2023-11-21T09:24:34;54.53;;;35.40;;
8861;SDS011;4799;50.996;4.754;2023-11-21T09:27:00;57.80;;;36.07;;
8861;SDS011;4799;50.996;4.754;2023-11-21T09:29:26;57.23;;;36.73;;
8861;SDS011;4799;50.996;4.754;2023-11-21T09:31:52;53.47;;;34.17;;
8861;SDS011;4799;50.996;4.754;2023-11-21T09:34:20;54.87;;;34.03;;
8861;SDS011;4799;50.996;4.754;2023-11-21T09:36:46;54.30;;;34.37;;
8861;SDS011;4799;50.996;4.754;2023-11-21T09:39:12;56.93;;;34.43;;
8861;SDS011;4799;50.996;4.754;2023-11-21T09:41:49;56.80;;;34.27;;
8861;SDS011;4799;50.996;4.754;2023-11-21T09:44:22;55.13;;;33.40;;
8861;SDS011;4799;50.996;4.754;2023-11-21T09:47:00;49.83;;;32.40;;
8861;SDS011;4799;50.996;4.754;2023-11-21T09:49:27;48.43;;;31.97;;
8861;SDS011;4799;50.996;4.754;2023-11-21T09:51:57;53.43;;;33.13;;
8861;SDS011;4799;50.996;4.754;2023-11-21T09:54:28;53.10;;;33.07;;
8861;SDS011;4799;50.996;4.754;2023-11-21T09:56:57;52.23;;;33.53;;
8861;SDS011;4799;50.996;4.754;2023-11-21T09:59:24;53.67;;;33.47;;
8861;SDS011;4799;50.996;4.754;2023-11-21T10:01:55;54.40;;;33.10;;
8861;SDS011;4799;50.996;4.754;2023-11-21T10:04:23;57.67;;;35.23;;
8861;SDS011;4799;50.996;4.754;2023-11-21T10:06:50;58.03;;;34.37;;
8861;SDS011;4799;50.996;4.754;2023-11-21T10:09:17;68.43;;;36.73;;
8861;SDS011;4799;50.996;4.754;2023-11-21T10:11:45;62.33;;;37.73;;
8861;SDS011;4799;50.996;4.754;2023-11-21T10:14:14;58.27;;;34.70;;
8861;SDS011;4799;50.996;4.754;2023-11-21T10:16:43;58.57;;;36.83;;
8861;SDS011;4799;50.996;4.754;2023-11-21T10:19:12;58.90;;;36.57;;
8861;SDS011;4799;50.996;4.754;2023-11-21T10:21:42;61.80;;;37.17;;
8861;SDS011;4799;50.996;4.754;2023-11-21T10:24:08;57.27;;;35.93;;
8861;SDS011;4799;50.996;4.754;2023-11-21T10:26:34;56.27;;;35.73;;
8861;SDS011;4799;50.996;4.754;2023-11-21T10:29:01;53.00;;;35.73;;
8861;SDS011;4799;50.996;4.754;2023-11-21T10:31:31;53.90;;;35.43;;
8861;SDS011;4799;50.996;4.754;2023-11-21T10:34:19;57.30;;;35.23;;
8861;SDS011;4799;50.996;4.754;2023-11-21T10:36:44;52.43;;;35.37;;
8861;SDS011;4799;50.996;4.754;2023-11-21T10:39:14;50.43;;;32.63;;
8861;SDS011;4799;50.996;4.754;2023-11-21T10:41:45;51.93;;;33.23;;
8861;SDS011;4799;50.996;4.754;2023-11-21T10:44:13;43.23;;;29.87;;
8861;SDS011;4799;50.996;4.754;2023-11-21T10:46:49;50.37;;;32.70;;
8861;SDS011;4799;50.996;4.754;2023-11-21T10:49:19;44.33;;;31.27;;
8861;SDS011;4799;50.996;4.754;2023-11-21T10:51:45;44.53;;;31.43;;
8861;SDS011;4799;50.996;4.754;2023-11-21T10:54:16;50.67;;;32.97;;
8861;SDS011;4799;50.996;4.754;2023-11-21T10:56:49;46.30;;;33.37;;
8861;SDS011;4799;50.996;4.754;2023-11-21T10:59:16;52.57;;;33.77;;
8861;SDS011;4799;50.996;4.754;2023-11-21T11:01:43;49.23;;;32.50;;
8861;SDS011;4799;50.996;4.754;2023-11-21T11:04:14;53.47;;;33.63;;
8861;SDS011;4799;50.996;4.754;2023-11-21T11:06:42;47.90;;;32.23;;
8861;SDS011;4799;50.996;4.754;2023-11-21T11:09:10;51.83;;;34.03;;
8861;SDS011;4799;50.996;4.754;2023-11-21T11:11:39;45.83;;;32.13;;
8861;SDS011;4799;50.996;4.754;2023-11-21T11:14:07;40.50;;;29.47;;
8861;SDS011;4799;50.996;4.754;2023-11-21T11:16:38;33.57;;;26.80;;
8861;SDS011;4799;50.996;4.754;2023-11-21T11:19:08;32.87;;;26.20;;
8861;SDS011;4799;50.996;4.754;2023-11-21T11:27:37;24.17;;;21.03;;
8861;SDS011;4799;50.996;4.754;2023-11-21T11:33:01;23.30;;;19.27;;
8861;SDS011;4799;50.996;4.754;2023-11-21T11:36:00;23.97;;;19.10;;
8861;SDS011;4799;50.996;4.754;2023-11-21T11:38:31;20.47;;;18.30;;
8861;SDS011;4799;50.996;4.754;2023-11-21T11:41:00;21.73;;;19.17;;
8861;SDS011;4799;50.996;4.754;2023-11-21T11:43:29;19.67;;;16.90;;
8861;SDS011;4799;50.996;4.754;2023-11-21T11:45:56;19.20;;;16.53;;
8861;SDS011;4799;50.996;4.754;2023-11-21T11:48:24;17.93;;;16.13;;
8861;SDS011;4799;50.996;4.754;2023-11-21T11:51:03;17.23;;;15.43;;
8861;SDS011;4799;50.996;4.754;2023-11-21T11:53:36;15.43;;;13.87;;
8861;SDS011;4799;50.996;4.754;2023-11-21T11:56:24;15.90;;;14.40;;
8861;SDS011;4799;50.996;4.754;2023-11-21T11:58:58;14.30;;;12.93;;
8861;SDS011;4799;50.996;4.754;2023-11-21T12:01:27;14.93;;;13.40;;
8861;SDS011;4799;50.996;4.754;2023-11-21T12:06:59;14.40;;;12.93;;
8861;SDS011;4799;50.996;4.754;2023-11-21T12:09:28;13.97;;;12.20;;
8861;SDS011;4799;50.996;4.754;2023-11-21T12:11:56;14.33;;;12.83;;
8861;SDS011;4799;50.996;4.754;2023-11-21T12:14:22;14.50;;;12.50;;
8861;SDS011;4799;50.996;4.754;2023-11-21T12:16:48;13.53;;;12.23;;
8861;SDS011;4799;50.996;4.754;2023-11-21T12:19:14;13.73;;;12.30;;
8861;SDS011;4799;50.996;4.754;2023-11-21T12:21:40;13.67;;;12.27;;
8861;SDS011;4799;50.996;4.754;2023-11-21T12:24:06;13.37;;;12.10;;
8861;SDS011;4799;50.996;4.754;2023-11-21T12:26:39;14.23;;;12.73;;
8861;SDS011;4799;50.996;4.754;2023-11-21T12:29:05;11.97;;;10.83;;
8861;SDS011;4799;50.996;4.754;2023-11-21T12:31:33;12.27;;;10.90;;
8861;SDS011;4799;50.996;4.754;2023-11-21T12:33:59;12.27;;;11.07;;
8861;SDS011;4799;50.996;4.754;2023-11-21T12:36:25;12.67;;;11.37;;
8861;SDS011;4799;50.996;4.754;2023-11-21T12:38:51;12.57;;;11.27;;
8861;SDS011;4799;50.996;4.754;2023-11-21T12:41:17;12.00;;;10.70;;
8861;SDS011;4799;50.996;4.754;2023-11-21T12:43:43;12.90;;;10.63;;
8861;SDS011;4799;50.996;4.754;2023-11-21T12:46:12;11.97;;;10.87;;
8861;SDS011;4799;50.996;4.754;2023-11-21T12:48:41;11.73;;;10.50;;
8861;SDS011;4799;50.996;4.754;2023-11-21T12:51:09;12.47;;;11.27;;
8861;SDS011;4799;50.996;4.754;2023-11-21T12:53:37;11.67;;;10.50;;
8861;SDS011;4799;50.996;4.754;2023-11-21T12:56:07;11.23;;;9.87;;
8861;SDS011;4799;50.996;4.754;2023-11-21T12:58:35;9.33;;;8.43;;
8861;SDS011;4799;50.996;4.754;2023-11-21T13:01:02;9.03;;;8.13;;
8861;SDS011;4799;50.996;4.754;2023-11-21T13:03:29;11.43;;;9.57;;
8861;SDS011;4799;50.996;4.754;2023-11-21T13:05:55;13.63;;;11.03;;
8861;SDS011;4799;50.996;4.754;2023-11-21T13:08:22;11.00;;;9.90;;
8861;SDS011;4799;50.996;4.754;2023-11-21T13:10:53;11.30;;;10.30;;
8861;SDS011;4799;50.996;4.754;2023-11-21T13:13:20;9.67;;;8.77;;
8861;SDS011;4799;50.996;4.754;2023-11-21T13:15:49;10.27;;;9.17;;
8861;SDS011;4799;50.996;4.754;2023-11-21T13:18:17;10.47;;;9.43;;
8861;SDS011;4799;50.996;4.754;2023-11-21T13:20:44;10.40;;;8.90;;
8861;SDS011;4799;50.996;4.754;2023-11-21T13:23:11;10.07;;;9.10;;
8861;SDS011;4799;50.996;4.754;2023-11-21T13:25:41;9.93;;;8.93;;
8861;SDS011;4799;50.996;4.754;2023-11-21T13:28:08;8.87;;;8.00;;
8861;SDS011;4799;50.996;4.754;2023-11-21T13:30:35;8.60;;;7.90;;
8861;SDS011;4799;50.996;4.754;2023-11-21T13:33:04;8.33;;;7.63;;
8861;SDS011;4799;50.996;4.754;2023-11-21T13:35:32;9.63;;;8.73;;
8861;SDS011;4799;50.996;4.754;2023-11-21T13:38:24;9.63;;;8.63;;
8861;SDS011;4799;50.996;4.754;2023-11-21T13:40:55;10.00;;;9.00;;
8861;SDS011;4799;50.996;4.754;2023-11-21T13:43:22;10.03;;;9.03;;
8861;SDS011;4799;50.996;4.754;2023-11-21T13:45:50;8.83;;;8.03;;
8861;SDS011;4799;50.996;4.754;2023-11-21T13:48:38;9.37;;;8.50;;
8861;SDS011;4799;50.996;4.754;2023-11-21T13:51:11;9.27;;;8.40;;
8861;SDS011;4799;50.996;4.754;2023-11-21T13:53:45;9.10;;;8.33;;
8861;SDS011;4799;50.996;4.754;2023-11-21T13:56:13;9.17;;;8.33;;
8861;SDS011;4799;50.996;4.754;2023-11-21T13:58:43;9.93;;;8.63;;
8861;SDS011;4799;50.996;4.754;2023-11-21T14:01:16;8.57;;;7.73;;
8861;SDS011;4799;50.996;4.754;2023-11-21T14:03:49;7.63;;;6.90;;
8861;SDS011;4799;50.996;4.754;2023-11-21T14:06:21;7.77;;;7.07;;
8861;SDS011;4799;50.996;4.754;2023-11-21T14:08:53;6.90;;;6.30;;
8861;SDS011;4799;50.996;4.754;2023-11-21T14:11:21;7.10;;;6.40;;
8861;SDS011;4799;50.996;4.754;2023-11-21T14:13:47;7.50;;;6.70;;
8861;SDS011;4799;50.996;4.754;2023-11-21T14:16:14;7.57;;;6.80;;
8861;SDS011;4799;50.996;4.754;2023-11-21T14:18:42;7.37;;;6.67;;
8861;SDS011;4799;50.996;4.754;2023-11-21T14:21:17;8.00;;;7.20;;
8861;SDS011;4799;50.996;4.754;2023-11-21T14:23:43;7.37;;;6.67;;
8861;SDS011;4799;50.996;4.754;2023-11-21T14:26:10;8.60;;;7.73;;
8861;SDS011;4799;50.996;4.754;2023-11-21T14:28:40;8.17;;;7.37;;
8861;SDS011;4799;50.996;4.754;2023-11-21T14:31:06;9.30;;;8.40;;
8861;SDS011;4799;50.996;4.754;2023-11-21T14:33:38;8.83;;;8.10;;
8861;SDS011;4799;50.996;4.754;2023-11-21T14:36:04;9.33;;;8.43;;
8861;SDS011;4799;50.996;4.754;2023-11-21T14:38:30;8.53;;;7.83;;
8861;SDS011;4799;50.996;4.754;2023-11-21T14:40:56;9.20;;;8.30;;
8861;SDS011;4799;50.996;4.754;2023-11-21T14:43:22;9.27;;;8.37;;
8861;SDS011;4799;50.996;4.754;2023-11-21T14:45:49;9.53;;;8.63;;
8861;SDS011;4799;50.996;4.754;2023-11-21T14:48:15;10.43;;;9.53;;
8861;SDS011;4799;50.996;4.754;2023-11-21T14:50:51;12.13;;;11.03;;
8861;SDS011;4799;50.996;4.754;2023-11-21T14:53:37;11.83;;;10.73;;
8861;SDS011;4799;50.996;4.754;2023-11-21T14:56:18;10.60;;;9.70;;
8861;SDS011;4799;50.996;4.754;2023-11-21T14:58:51;10.37;;;9.43;;
8861;SDS011;4799;50.996;4.754;2023-11-21T15:01:19;10.03;;;9.13;;
8861;SDS011;4799;50.996;4.754;2023-11-21T15:03:52;10.00;;;9.10;;